createdAt,value
2018-03-19T00:02:10.506Z,12.03
2018-03-19T00:04:38.180Z,11.77
2018-03-19T00:07:05.821Z,11.53
2018-03-19T00:09:34.201Z,11.33
2018-03-19T00:12:01.886Z,11.87
2018-03-19T00:14:30.250Z,11.30
2018-03-19T00:16:57.938Z,12.83
2018-03-19T00:19:27.355Z,11.57
2018-03-19T00:21:55.752Z,12.00
2018-03-19T00:24:23.438Z,11.67
2018-03-19T00:26:51.880Z,12.23
2018-03-19T00:29:20.232Z,12.47
2018-03-19T00:31:47.862Z,12.37
2018-03-19T00:34:15.466Z,11.80
2018-03-19T00:36:43.091Z,10.90
2018-03-19T00:39:10.674Z,11.57
2018-03-19T00:41:38.314Z,12.33
2018-03-19T00:44:05.911Z,13.10
2018-03-19T00:46:33.999Z,13.20
2018-03-19T00:49:01.599Z,12.63
2018-03-19T00:51:29.202Z,12.80
2018-03-19T00:53:56.852Z,12.77
2018-03-19T00:56:24.458Z,13.30
2018-03-19T00:58:52.861Z,12.40
2018-03-19T01:01:21.246Z,12.37
2018-03-19T01:03:48.844Z,13.27
2018-03-19T01:06:17.113Z,13.93
2018-03-19T01:08:44.699Z,13.57
2018-03-19T01:11:12.298Z,11.90
2018-03-19T01:13:39.926Z,12.73
2018-03-19T01:16:08.060Z,13.20
2018-03-19T01:18:35.749Z,13.27
2018-03-19T01:21:03.807Z,13.17
2018-03-19T01:23:31.409Z,10.97
2018-03-19T01:25:59.021Z,12.57
2018-03-19T01:28:27.395Z,12.77
2018-03-19T01:30:55.755Z,14.13
2018-03-19T01:33:23.347Z,11.97
2018-03-19T01:35:50.927Z,12.13
2018-03-19T01:38:18.850Z,11.53
2018-03-19T01:40:46.427Z,12.37
2018-03-19T01:43:14.845Z,12.73
2018-03-19T01:45:42.882Z,10.33
2018-03-19T01:48:10.589Z,10.37
2018-03-19T01:50:38.159Z,12.33
2018-03-19T01:53:06.011Z,11.23
2018-03-19T01:55:33.610Z,11.33
2018-03-19T01:58:01.188Z,9.77
2018-03-19T02:00:28.799Z,9.40
2018-03-19T02:02:56.383Z,10.67
2018-03-19T02:05:24.122Z,8.83
2018-03-19T02:07:51.737Z,9.80
2018-03-19T02:10:21.302Z,9.87
2018-03-19T02:12:50.188Z,9.80
2018-03-19T02:15:18.418Z,9.03
2018-03-19T02:17:46.019Z,10.03
2018-03-19T02:20:13.994Z,9.00
2018-03-19T02:22:41.647Z,8.87
2018-03-19T02:25:09.247Z,8.50
2018-03-19T02:27:36.842Z,7.97
2018-03-19T02:30:04.569Z,8.27
2018-03-19T02:32:32.441Z,8.23
2018-03-19T02:35:00.749Z,8.23
2018-03-19T02:37:28.843Z,7.33
2018-03-19T02:39:57.190Z,8.60
2018-03-19T02:42:24.779Z,7.20
2018-03-19T02:44:52.612Z,7.53
2018-03-19T02:47:20.191Z,6.53
2018-03-19T02:49:47.815Z,6.50
2018-03-19T02:52:15.770Z,6.63
2018-03-19T02:54:44.135Z,6.70
2018-03-19T02:57:11.782Z,7.37
2018-03-19T02:59:39.354Z,7.03
2018-03-19T03:02:07.247Z,7.13
2018-03-19T03:04:35.617Z,5.77
2018-03-19T03:07:03.975Z,6.00
2018-03-19T03:09:31.582Z,6.93
2018-03-19T03:11:59.884Z,6.97
2018-03-19T03:14:27.503Z,6.90
2018-03-19T03:16:55.842Z,6.70
2018-03-19T03:19:23.435Z,6.43
2018-03-19T03:21:51.024Z,6.23
2018-03-19T03:24:18.610Z,6.87
2018-03-19T03:26:46.214Z,7.03
2018-03-19T03:29:13.836Z,5.50
2018-03-19T03:31:42.170Z,6.53
2018-03-19T03:34:09.751Z,5.83
2018-03-19T03:36:37.375Z,6.13
2018-03-19T03:39:05.007Z,5.83
2018-03-19T03:41:33.413Z,6.03
2018-03-19T03:44:01.173Z,6.40
2018-03-19T03:46:28.738Z,6.30
2018-03-19T03:48:56.355Z,6.50
2018-03-19T03:51:23.932Z,5.93
2018-03-19T03:53:52.288Z,6.07
2018-03-19T03:56:19.865Z,6.17
2018-03-19T03:58:47.533Z,6.20
2018-03-19T04:01:16.606Z,5.53
2018-03-19T04:03:44.178Z,6.83
2018-03-19T04:06:11.752Z,6.50
2018-03-19T04:08:40.236Z,6.90
2018-03-19T04:11:08.569Z,6.40
2018-03-19T04:13:36.405Z,6.13
2018-03-19T04:16:04.031Z,6.87
2018-03-19T04:18:31.606Z,6.40
2018-03-19T04:20:59.238Z,6.43
2018-03-19T04:23:26.823Z,6.33
2018-03-19T04:25:54.438Z,6.80
2018-03-19T04:28:22.283Z,6.07
2018-03-19T04:30:49.882Z,6.87
2018-03-19T04:33:17.454Z,6.40
2018-03-19T04:35:45.252Z,6.17
2018-03-19T04:38:12.976Z,6.43
2018-03-19T04:40:40.559Z,6.67
2018-03-19T04:43:08.507Z,6.43
2018-03-19T04:45:36.107Z,5.80
2018-03-19T04:48:03.712Z,6.10
2018-03-19T04:50:31.350Z,6.03
2018-03-19T04:52:58.934Z,6.27
2018-03-19T04:55:26.826Z,5.13
2018-03-19T04:57:54.414Z,5.17
2018-03-19T05:00:21.993Z,5.70
2018-03-19T05:02:49.630Z,5.87
2018-03-19T05:05:17.214Z,5.77
2018-03-19T05:07:45.671Z,6.57
2018-03-19T05:10:13.281Z,6.27
2018-03-19T05:12:40.854Z,5.47
2018-03-19T05:15:10.147Z,5.63
2018-03-19T05:17:38.523Z,5.47
2018-03-19T05:20:06.128Z,5.33
2018-03-19T05:22:34.211Z,5.50
2018-03-19T05:25:01.793Z,5.10
2018-03-19T05:27:29.358Z,5.20
2018-03-19T05:29:56.947Z,5.23
2018-03-19T05:32:25.280Z,5.37
2018-03-19T05:34:53.615Z,5.20
2018-03-19T05:37:22.003Z,5.33
2018-03-19T05:39:50.355Z,5.33
2018-03-19T05:42:18.548Z,5.37
2018-03-19T05:44:46.111Z,4.90
2018-03-19T05:47:14.459Z,4.97
2018-03-19T05:49:42.266Z,5.17
2018-03-19T05:52:09.843Z,4.80
2018-03-19T05:54:37.432Z,5.10
2018-03-19T05:57:05.193Z,5.27
2018-03-19T05:59:32.773Z,4.60
2018-03-19T06:02:00.366Z,4.57
2018-03-19T06:04:27.939Z,5.47
2018-03-19T06:06:55.586Z,5.27
2018-03-19T06:09:23.155Z,4.97
2018-03-19T06:11:50.722Z,5.17
2018-03-19T06:14:19.488Z,4.47
2018-03-19T06:16:47.081Z,4.37
2018-03-19T06:19:14.691Z,4.73
2018-03-19T06:21:42.380Z,4.37
2018-03-19T06:24:10.269Z,5.33
2018-03-19T06:26:38.010Z,5.10
2018-03-19T06:29:05.602Z,4.50
2018-03-19T06:31:33.219Z,4.70
2018-03-19T06:34:02.254Z,5.37
2018-03-19T06:36:29.960Z,4.77
2018-03-19T06:38:57.567Z,5.13
2018-03-19T06:41:26.034Z,5.03
2018-03-19T06:43:53.649Z,4.70
2018-03-19T06:46:22.015Z,5.20
2018-03-19T06:48:50.969Z,5.07
2018-03-19T06:51:18.583Z,5.03
2018-03-19T06:53:46.187Z,4.57
2018-03-19T06:56:13.829Z,5.20
2018-03-19T06:58:42.182Z,5.13
2018-03-19T07:01:11.885Z,5.53
2018-03-19T07:03:40.255Z,5.50
2018-03-19T07:06:11.462Z,5.57
2018-03-19T07:08:40.341Z,5.00
2018-03-19T07:11:08.015Z,5.30
2018-03-19T07:13:36.816Z,5.37
2018-03-19T07:16:05.346Z,5.10
2018-03-19T07:18:33.116Z,6.10
2018-03-19T07:21:01.106Z,6.47
2018-03-19T07:23:29.459Z,5.80
2018-03-19T07:25:57.035Z,5.10
2018-03-19T07:28:24.643Z,4.97
2018-03-19T07:30:52.235Z,5.33
2018-03-19T07:33:19.826Z,5.60
2018-03-19T07:35:48.223Z,5.40
2018-03-19T07:38:16.811Z,6.07
2018-03-19T07:40:45.143Z,5.20
2018-03-19T07:43:12.746Z,6.77
2018-03-19T07:45:40.315Z,5.80
2018-03-19T07:48:07.892Z,6.00
2018-03-19T07:50:37.168Z,6.00
2018-03-19T07:53:05.862Z,5.67
2018-03-19T07:55:34.167Z,5.23
2018-03-19T07:58:01.900Z,5.70
2018-03-19T08:00:29.535Z,6.57
2018-03-19T08:02:57.163Z,6.53
2018-03-19T08:05:26.140Z,6.37
2018-03-19T08:07:53.726Z,5.47
2018-03-19T08:10:21.490Z,5.83
2018-03-19T08:12:49.143Z,5.20
2018-03-19T08:15:16.740Z,5.97
2018-03-19T08:17:44.347Z,5.67
2018-03-19T08:20:12.206Z,6.17
2018-03-19T08:22:39.762Z,5.57
2018-03-19T08:25:07.334Z,5.37
2018-03-19T08:27:35.331Z,5.23
2018-03-19T08:30:02.915Z,5.80
2018-03-19T08:32:30.500Z,5.47
2018-03-19T08:34:58.750Z,5.93
2018-03-19T08:37:26.319Z,5.47
2018-03-19T08:39:53.891Z,6.03
2018-03-19T08:42:21.491Z,7.07
2018-03-19T08:44:49.054Z,6.47
2018-03-19T08:47:16.687Z,5.90
2018-03-19T08:49:44.270Z,5.00
2018-03-19T08:52:11.847Z,5.87
2018-03-19T08:54:39.456Z,5.57
2018-03-19T08:57:07.807Z,6.07
2018-03-19T08:59:36.903Z,5.30
2018-03-19T09:02:04.631Z,5.37
2018-03-19T09:04:32.264Z,5.40
2018-03-19T09:06:59.876Z,6.67
2018-03-19T09:09:27.476Z,5.37
2018-03-19T09:11:55.294Z,5.57
2018-03-19T09:14:22.870Z,5.60
2018-03-19T09:16:50.483Z,5.43
2018-03-19T09:19:18.099Z,5.50
2018-03-19T09:21:46.155Z,5.03
2018-03-19T09:24:13.747Z,5.27
2018-03-19T09:26:41.318Z,5.77
2018-03-19T09:29:08.962Z,5.40
2018-03-19T09:31:36.555Z,5.00
2018-03-19T09:34:04.416Z,5.20
2018-03-19T09:36:31.982Z,4.50
2018-03-19T09:38:59.580Z,5.53
2018-03-19T09:41:27.214Z,5.30
2018-03-19T09:43:54.954Z,4.77
2018-03-19T09:46:22.549Z,5.43
2018-03-19T09:48:50.170Z,5.00
2018-03-19T09:51:19.688Z,5.47
2018-03-19T09:53:47.817Z,5.13
2018-03-19T09:56:15.453Z,5.10
2018-03-19T09:58:43.029Z,7.40
2018-03-19T10:01:11.409Z,5.70
2018-03-19T10:03:39.000Z,4.87
2018-03-19T10:06:06.633Z,4.70
2018-03-19T10:08:34.983Z,4.80
2018-03-19T10:11:03.084Z,4.93
2018-03-19T10:13:30.673Z,4.90
2018-03-19T10:15:58.246Z,5.03
2018-03-19T10:18:25.903Z,4.93
2018-03-19T10:20:53.481Z,4.80
2018-03-19T10:23:21.071Z,4.97
2018-03-19T10:25:49.081Z,4.73
2018-03-19T10:28:16.669Z,5.00
2018-03-19T10:30:44.269Z,4.63
2018-03-19T10:33:11.892Z,5.00
2018-03-19T10:35:39.492Z,4.23
2018-03-19T10:38:07.893Z,5.07
2018-03-19T10:40:36.979Z,4.47
2018-03-19T10:43:04.538Z,4.80
2018-03-19T10:45:32.167Z,5.33
2018-03-19T10:47:59.802Z,4.83
2018-03-19T10:50:27.428Z,4.80
2018-03-19T10:52:55.021Z,4.47
2018-03-19T10:55:23.387Z,4.80
2018-03-19T10:57:50.994Z,4.87
2018-03-19T11:00:18.819Z,4.80
2018-03-19T11:02:51.907Z,5.03
2018-03-19T11:05:25.101Z,4.80
2018-03-19T11:07:59.023Z,6.23
2018-03-19T11:10:26.615Z,4.90
2018-03-19T11:12:54.207Z,4.97
2018-03-19T11:15:21.811Z,4.53
2018-03-19T11:17:49.455Z,4.13
2018-03-19T11:20:17.090Z,4.83
2018-03-19T11:22:44.786Z,5.47
2018-03-19T11:25:12.436Z,4.77
2018-03-19T11:27:40.891Z,5.27
2018-03-19T11:30:08.482Z,4.40
2018-03-19T11:32:36.092Z,5.40
2018-03-19T11:35:03.687Z,4.27
2018-03-19T11:37:31.283Z,4.40
2018-03-19T11:39:59.063Z,5.67
2018-03-19T11:42:26.643Z,5.10
2018-03-19T11:44:55.003Z,4.30
2018-03-19T11:47:23.154Z,4.87
2018-03-19T11:49:50.743Z,4.80
2018-03-19T11:52:18.339Z,4.67
2018-03-19T11:54:46.899Z,4.30
2018-03-19T11:57:14.523Z,5.07
2018-03-19T11:59:42.307Z,4.10
2018-03-19T12:02:09.903Z,4.90
2018-03-19T12:04:37.479Z,4.17
2018-03-19T12:07:05.087Z,4.60
2018-03-19T12:09:32.717Z,3.67
2018-03-19T12:12:00.351Z,4.57
2018-03-19T12:14:27.924Z,3.97
2018-03-19T12:16:55.636Z,3.90
2018-03-19T12:19:23.260Z,4.30
2018-03-19T12:21:51.779Z,4.03
2018-03-19T12:24:19.354Z,3.93
2018-03-19T12:26:46.969Z,4.10
2018-03-19T12:29:14.616Z,4.50
2018-03-19T12:31:42.190Z,4.07
2018-03-19T12:34:10.260Z,4.33
2018-03-19T12:36:37.834Z,4.03
2018-03-19T12:39:05.440Z,3.87
2018-03-19T12:41:33.082Z,3.83
2018-03-19T12:44:00.689Z,4.13
2018-03-19T12:46:28.267Z,4.33
2018-03-19T12:48:55.849Z,4.30
2018-03-19T12:51:24.247Z,4.13
2018-03-19T12:53:51.860Z,4.43
2018-03-19T12:56:19.451Z,3.53
2018-03-19T12:58:47.823Z,3.80
2018-03-19T13:01:17.005Z,4.10
2018-03-19T13:03:44.611Z,4.13
2018-03-19T13:06:12.959Z,4.60
2018-03-19T13:08:41.354Z,3.87
2018-03-19T13:11:09.749Z,4.87
2018-03-19T13:13:38.091Z,4.20
2018-03-19T13:16:06.800Z,3.43
2018-03-19T13:18:34.411Z,4.27
2018-03-19T13:21:02.076Z,4.47
2018-03-19T13:23:29.767Z,3.77
2018-03-19T13:25:57.755Z,4.40
2018-03-19T13:28:25.679Z,4.37
2018-03-19T13:30:53.309Z,3.70
2018-03-19T13:33:20.923Z,3.90
2018-03-19T13:35:48.567Z,3.57
2018-03-19T13:38:16.150Z,4.13
2018-03-19T13:40:43.729Z,3.50
2018-03-19T13:43:11.335Z,3.80
2018-03-19T13:45:39.679Z,3.73
2018-03-19T13:48:07.257Z,4.03
2018-03-19T13:50:34.850Z,4.07
2018-03-19T13:53:03.207Z,3.80
2018-03-19T13:55:30.784Z,3.77
2018-03-19T13:57:58.400Z,3.57
2018-03-19T14:00:25.974Z,3.53
2018-03-19T14:02:53.566Z,3.40
2018-03-19T14:05:21.945Z,4.10
2018-03-19T14:07:49.559Z,3.37
2018-03-19T14:10:17.133Z,3.80
2018-03-19T14:12:44.734Z,3.50
2018-03-19T14:15:12.725Z,3.83
2018-03-19T14:17:40.339Z,3.30
2018-03-19T14:20:07.967Z,4.00
2018-03-19T14:22:35.540Z,3.40
2018-03-19T14:25:03.185Z,3.43
2018-03-19T14:27:30.782Z,3.30
2018-03-19T14:29:58.384Z,3.83
2018-03-19T14:32:26.003Z,3.97
2018-03-19T14:34:53.605Z,3.47
2018-03-19T14:37:21.182Z,3.70
2018-03-19T14:39:49.540Z,3.30
2018-03-19T14:42:17.113Z,3.20
2018-03-19T14:44:44.999Z,3.90
2018-03-19T14:47:13.345Z,3.93
2018-03-19T14:49:40.936Z,3.30
2018-03-19T14:52:09.051Z,4.00
2018-03-19T14:54:37.138Z,3.40
2018-03-19T14:57:04.717Z,3.63
2018-03-19T14:59:32.463Z,3.23
2018-03-19T15:02:00.068Z,3.60
2018-03-19T15:04:27.680Z,3.83
2018-03-19T15:06:55.304Z,3.53
2018-03-19T15:09:22.913Z,3.63
2018-03-19T15:11:50.485Z,3.60
2018-03-19T15:14:18.356Z,3.17
2018-03-19T15:16:45.917Z,2.73
2018-03-19T15:19:13.478Z,3.87
2018-03-19T15:21:41.323Z,3.03
2018-03-19T15:24:08.959Z,3.50
2018-03-19T15:26:37.290Z,3.23
2018-03-19T15:29:04.922Z,3.67
2018-03-19T15:31:32.781Z,3.20
2018-03-19T15:34:01.201Z,3.43
2018-03-19T15:36:28.861Z,3.17
2018-03-19T15:38:56.628Z,3.37
2018-03-19T15:41:24.197Z,3.63
2018-03-19T15:43:51.767Z,3.37
2018-03-19T15:46:19.844Z,3.30
2018-03-19T15:48:47.415Z,3.93
2018-03-19T15:51:15.011Z,3.57
2018-03-19T15:53:42.687Z,3.20
2018-03-19T15:56:10.262Z,3.53
2018-03-19T15:58:37.835Z,3.40
2018-03-19T16:01:05.435Z,3.63
2018-03-19T16:03:33.010Z,3.63
2018-03-19T16:06:00.583Z,3.10
2018-03-19T16:08:28.434Z,3.10
2018-03-19T16:10:55.999Z,3.33
2018-03-19T16:13:23.578Z,3.80
2018-03-19T16:15:51.783Z,3.30
2018-03-19T16:18:20.381Z,3.50
2018-03-19T16:20:47.975Z,3.40
2018-03-19T16:23:15.565Z,3.20
2018-03-19T16:25:43.125Z,3.10
2018-03-19T16:28:12.206Z,3.10
2018-03-19T16:30:39.793Z,2.83
2018-03-19T16:33:07.378Z,3.30
2018-03-19T16:35:34.954Z,2.90
2018-03-19T16:38:03.514Z,3.07
2018-03-19T16:40:31.871Z,2.97
2018-03-19T16:42:59.464Z,3.27
2018-03-19T16:45:28.141Z,3.30
2018-03-19T16:47:56.487Z,3.10
2018-03-19T16:50:24.104Z,3.17
2018-03-19T16:52:52.823Z,3.13
2018-03-19T16:55:20.415Z,3.00
2018-03-19T16:57:48.009Z,3.43
2018-03-19T17:00:16.297Z,3.00
2018-03-19T17:02:43.907Z,3.30
2018-03-19T17:05:11.513Z,3.57
2018-03-19T17:07:39.242Z,2.90
2018-03-19T17:10:06.811Z,3.60
2018-03-19T17:12:34.418Z,3.37
2018-03-19T17:15:03.913Z,3.43
2018-03-19T17:17:31.506Z,2.80
2018-03-19T17:19:59.082Z,3.50
2018-03-19T17:22:26.742Z,3.47
2018-03-19T17:24:54.380Z,2.83
2018-03-19T17:27:22.172Z,2.87
2018-03-19T17:29:49.940Z,3.13
2018-03-19T17:32:17.557Z,4.00
2018-03-19T17:34:45.967Z,3.20
2018-03-19T17:37:13.584Z,3.87
2018-03-19T17:39:41.198Z,3.00
2018-03-19T17:42:08.824Z,3.23
2018-03-19T17:44:36.761Z,3.63
2018-03-19T17:47:05.646Z,3.40
2018-03-19T17:49:33.390Z,3.13
2018-03-19T17:52:01.390Z,3.17
2018-03-19T17:54:32.179Z,3.80
2018-03-19T17:56:59.816Z,3.50
2018-03-19T17:59:28.173Z,3.50
2018-03-19T18:01:56.495Z,2.97
2018-03-19T18:04:24.872Z,3.20
2018-03-19T18:06:52.460Z,3.33
2018-03-19T18:09:21.069Z,3.53
2018-03-19T18:11:49.012Z,3.23
2018-03-19T18:14:16.602Z,2.70
2018-03-19T18:16:44.189Z,2.93
2018-03-19T18:19:12.022Z,2.30
2018-03-19T18:21:39.629Z,3.23
2018-03-19T18:24:07.234Z,3.60
2018-03-19T18:26:36.423Z,4.27
2018-03-19T18:29:06.359Z,3.17
2018-03-19T18:31:34.617Z,2.87
2018-03-19T18:34:02.223Z,3.00
2018-03-19T18:36:29.827Z,3.37
2018-03-19T18:38:57.410Z,3.37
2018-03-19T18:41:25.845Z,3.00
2018-03-19T18:43:55.157Z,3.17
2018-03-19T18:46:22.907Z,3.27
2018-03-19T18:48:50.515Z,3.40
2018-03-19T18:51:18.885Z,3.30
2018-03-19T18:53:48.663Z,3.43
2018-03-19T18:56:16.303Z,2.97
2018-03-19T18:58:43.913Z,3.23
2018-03-19T19:01:12.359Z,3.40
2018-03-19T19:03:39.966Z,2.97
2018-03-19T19:06:07.559Z,2.77
2018-03-19T19:08:36.081Z,2.80
2018-03-19T19:11:04.820Z,2.87
2018-03-19T19:13:32.464Z,3.00
2018-03-19T19:16:00.601Z,3.27
2018-03-19T19:18:29.058Z,3.77
2018-03-19T19:20:57.454Z,2.70
2018-03-19T19:23:26.898Z,3.10
2018-03-19T19:25:54.636Z,3.00
2018-03-19T19:28:23.205Z,3.50
2018-03-19T19:30:51.582Z,3.17
2018-03-19T19:33:19.965Z,2.50
2018-03-19T19:35:48.337Z,3.37
2018-03-19T19:38:16.752Z,3.47
2018-03-19T19:40:44.348Z,2.57
2018-03-19T19:43:12.011Z,3.03
2018-03-19T19:45:39.644Z,2.97
2018-03-19T19:48:07.261Z,3.13
2018-03-19T19:50:35.741Z,2.83
2018-03-19T19:53:03.545Z,3.07
2018-03-19T19:55:31.882Z,3.63
2018-03-19T19:57:59.479Z,2.83
2018-03-19T20:00:27.820Z,2.73
2018-03-19T20:02:55.442Z,2.93
2018-03-19T20:05:23.088Z,2.73
2018-03-19T20:07:50.679Z,2.80
2018-03-19T20:10:18.830Z,2.83
2018-03-19T20:12:47.186Z,2.40
2018-03-19T20:15:14.931Z,2.00
2018-03-19T20:17:43.077Z,2.70
2018-03-19T20:20:10.928Z,2.43
2018-03-19T20:22:38.495Z,3.17
2018-03-19T20:25:06.843Z,2.13
2018-03-19T20:27:34.469Z,2.20
2018-03-19T20:30:02.080Z,2.37
2018-03-19T20:32:31.461Z,2.40
2018-03-19T20:34:59.068Z,2.10
2018-03-19T20:37:27.425Z,2.23
2018-03-19T20:39:54.995Z,2.10
2018-03-19T20:42:24.126Z,2.43
2018-03-19T20:44:51.741Z,2.53
2018-03-19T20:47:19.707Z,2.57
2018-03-19T20:49:47.402Z,2.03
2018-03-19T20:52:16.000Z,2.37
2018-03-19T20:54:43.626Z,2.60
2018-03-19T20:57:11.876Z,2.40
2018-03-19T20:59:39.492Z,3.03
2018-03-19T21:02:08.190Z,2.70
2018-03-19T21:04:35.867Z,3.33
2018-03-19T21:07:05.319Z,2.70
2018-03-19T21:09:34.130Z,2.73
2018-03-19T21:12:01.771Z,2.33
2018-03-19T21:14:30.380Z,2.67
2018-03-19T21:16:58.440Z,2.57
2018-03-19T21:19:27.322Z,3.27
2018-03-19T21:21:56.188Z,2.20
2018-03-19T21:24:23.934Z,2.27
2018-03-19T21:26:51.695Z,2.97
2018-03-19T21:29:23.735Z,2.60
2018-03-19T21:31:52.891Z,3.00
2018-03-19T21:34:21.812Z,2.40
2018-03-19T21:36:49.491Z,2.30
2018-03-19T21:39:17.595Z,2.60
2018-03-19T21:41:46.084Z,2.70
2018-03-19T21:44:18.452Z,2.53
2018-03-19T21:46:48.653Z,3.10
2018-03-19T21:49:18.529Z,2.50
2018-03-19T21:51:46.836Z,2.33
2018-03-19T21:54:15.697Z,2.77
2018-03-19T21:56:45.950Z,3.07
2018-03-19T21:59:14.338Z,2.77
2018-03-19T22:01:43.666Z,3.63
2018-03-19T22:04:13.334Z,2.30
2018-03-19T22:06:42.503Z,2.87
2018-03-19T22:09:14.709Z,2.57
2018-03-19T22:11:43.149Z,2.57
2018-03-19T22:14:12.722Z,2.80
2018-03-19T22:16:41.585Z,2.80
2018-03-19T22:19:09.825Z,2.70
2018-03-19T22:21:38.645Z,3.10
2018-03-19T22:24:06.259Z,3.63
2018-03-19T22:26:35.420Z,4.87
2018-03-19T22:29:03.065Z,4.30
2018-03-19T22:31:30.758Z,3.57
2018-03-19T22:33:58.438Z,2.80
2018-03-19T22:36:26.628Z,2.67
2018-03-19T22:38:54.396Z,2.77
2018-03-19T22:41:22.226Z,2.67
2018-03-19T22:43:49.886Z,2.50
2018-03-19T22:46:17.490Z,2.40
2018-03-19T22:48:45.655Z,2.30
2018-03-19T22:51:13.359Z,2.10
2018-03-19T22:53:41.150Z,1.90
2018-03-19T22:56:09.573Z,1.80
2018-03-19T22:58:37.338Z,2.37
2018-03-19T23:01:05.855Z,2.10
2018-03-19T23:03:33.839Z,2.60
2018-03-19T23:06:01.742Z,2.40
2018-03-19T23:08:30.108Z,2.10
2018-03-19T23:10:57.923Z,2.50
2018-03-19T23:13:25.501Z,2.03
2018-03-19T23:15:53.317Z,2.47
2018-03-19T23:18:20.927Z,2.20
2018-03-19T23:20:48.577Z,2.07
2018-03-19T23:23:16.703Z,2.60
2018-03-19T23:25:44.310Z,2.43
2018-03-19T23:28:11.912Z,2.23
2018-03-19T23:30:39.612Z,2.20
2018-03-19T23:33:07.196Z,2.20
2018-03-19T23:35:35.093Z,2.33
2018-03-19T23:38:02.687Z,2.20
2018-03-19T23:40:30.478Z,2.00
2018-03-19T23:42:58.634Z,2.13
2018-03-19T23:45:26.249Z,2.10
2018-03-19T23:47:53.897Z,2.23
2018-03-19T23:50:21.506Z,1.90
2018-03-19T23:52:49.606Z,2.30
2018-03-19T23:55:18.383Z,2.03
2018-03-19T23:57:47.896Z,2.07
